Time;durP1;ratioP1;P1;durP2;ratioP2;P2;SDS_P1;SDS_P2;PMS_P1;PMS_P2;Temp;Humidity;BMP_temperature;BMP_pressure;BME280_temperature;BME280_humidity;BME280_pressure;Samples;Min_cycle;Max_cycle;Signal;HPM_P1;HPM_P2
2021/12/04 00:01:51;;;;;;;9.83;7.70;;;;;;;;;;5062388;28;20564;-62
2021/12/04 00:04:25;;;;;;;9.47;7.80;;;;;;;;;;5066019;28;20282;-63
2021/12/04 00:06:52;;;;;;;11.60;7.47;;;;;;;;;;5071074;28;20203;-63
2021/12/04 00:09:21;;;;;;;9.70;6.90;;;;;;;;;;5060596;28;20232;-63
2021/12/04 00:12:23;;;;;;;8.87;6.90;;;;;;;;;;5058781;28;20734;-63
2021/12/04 00:14:44;;;;;;;8.37;6.20;;;;;;;;;;5057112;28;20230;-64
2021/12/04 00:17:12;;;;;;;9.33;6.73;;;;;;;;;;5058998;28;20209;-63
2021/12/04 00:19:40;;;;;;;9.77;7.57;;;;;;;;;;5062556;28;20242;-63
2021/12/04 00:22:07;;;;;;;10.60;7.00;;;;;;;;;;5064334;28;20311;-63
2021/12/04 00:24:35;;;;;;;9.47;6.70;;;;;;;;;;5071549;28;20209;-63
2021/12/04 00:27:02;;;;;;;9.40;6.27;;;;;;;;;;5060076;28;20668;-64
2021/12/04 00:29:30;;;;;;;8.47;6.30;;;;;;;;;;5055499;28;20224;-63
2021/12/04 00:32:04;;;;;;;9.00;6.13;;;;;;;;;;5055358;28;20282;-64
2021/12/04 00:34:33;;;;;;;7.63;5.63;;;;;;;;;;5059437;28;20202;-63
2021/12/04 00:49:07;;;;;;;6.77;4.83;;;;;;;;;;5049499;28;20215;-64
2021/12/04 00:51:13;;;;;;;5.90;4.63;;;;;;;;;;5059746;28;20228;-63
2021/12/04 00:53:41;;;;;;;7.63;5.53;;;;;;;;;;5077407;28;20670;-63
2021/12/04 00:56:08;;;;;;;5.80;5.20;;;;;;;;;;5051958;28;20211;-62
2021/12/04 00:58:35;;;;;;;6.37;5.23;;;;;;;;;;5075456;28;20208;-62
2021/12/04 01:01:03;;;;;;;6.17;4.83;;;;;;;;;;5069504;28;20237;-62
2021/12/04 01:03:34;;;;;;;7.03;4.83;;;;;;;;;;5070466;28;20208;-63
2021/12/04 01:06:01;;;;;;;6.27;5.23;;;;;;;;;;5060694;28;20201;-64
2021/12/04 01:08:29;;;;;;;6.83;4.93;;;;;;;;;;5048041;28;20239;-63
2021/12/04 01:10:56;;;;;;;7.80;5.20;;;;;;;;;;5072851;28;20221;-64
2021/12/04 01:13:23;;;;;;;7.30;5.70;;;;;;;;;;5060294;28;20205;-63
2021/12/04 01:15:51;;;;;;;8.20;5.23;;;;;;;;;;5071412;28;20215;-63
2021/12/04 01:18:18;;;;;;;6.30;5.70;;;;;;;;;;5064416;28;20258;-63
2021/12/04 01:20:45;;;;;;;8.83;6.07;;;;;;;;;;5057623;28;20274;-64
2021/12/04 01:23:15;;;;;;;9.00;6.37;;;;;;;;;;5072844;28;20670;-64
2021/12/04 01:25:44;;;;;;;6.27;5.67;;;;;;;;;;5053623;28;20212;-63
2021/12/04 01:28:11;;;;;;;9.00;5.93;;;;;;;;;;5075869;28;20230;-63
2021/12/04 01:30:39;;;;;;;10.30;6.63;;;;;;;;;;5064308;28;20242;-63
2021/12/04 01:33:06;;;;;;;8.00;6.43;;;;;;;;;;5058372;28;20207;-63
2021/12/04 01:35:34;;;;;;;8.67;6.50;;;;;;;;;;5063511;28;20294;-63
2021/12/04 01:38:01;;;;;;;9.20;6.63;;;;;;;;;;5071337;28;20266;-63
2021/12/04 01:40:29;;;;;;;9.03;6.73;;;;;;;;;;5064125;28;20259;-63
2021/12/04 01:42:56;;;;;;;9.87;6.83;;;;;;;;;;5067624;28;20658;-63
2021/12/04 01:45:24;;;;;;;9.70;6.77;;;;;;;;;;5068766;28;20209;-62
2021/12/04 01:47:58;;;;;;;9.27;6.60;;;;;;;;;;5072640;28;20208;-62
2021/12/04 01:50:27;;;;;;;8.93;6.50;;;;;;;;;;5060564;28;20642;-62
2021/12/04 01:52:56;;;;;;;8.63;6.13;;;;;;;;;;5065824;28;20830;-63
2021/12/04 01:55:25;;;;;;;8.30;6.60;;;;;;;;;;5062206;28;20202;-63
2021/12/04 01:57:52;;;;;;;10.90;6.73;;;;;;;;;;5061694;28;20239;-64
2021/12/04 02:00:20;;;;;;;8.77;6.70;;;;;;;;;;5071958;28;20240;-63
2021/12/04 02:02:47;;;;;;;10.17;7.23;;;;;;;;;;5081513;28;20200;-64
2021/12/04 02:05:15;;;;;;;7.47;5.90;;;;;;;;;;5062201;28;20716;-63
2021/12/04 02:07:42;;;;;;;10.93;6.53;;;;;;;;;;5072731;28;20209;-63
2021/12/04 02:10:10;;;;;;;9.57;6.00;;;;;;;;;;5076069;28;20215;-64
2021/12/04 02:12:38;;;;;;;8.73;6.63;;;;;;;;;;5056863;28;20202;-63
2021/12/04 02:15:06;;;;;;;8.77;6.00;;;;;;;;;;5063035;28;20208;-63
2021/12/04 02:17:33;;;;;;;8.63;5.93;;;;;;;;;;5067802;28;20220;-63
2021/12/04 02:20:01;;;;;;;6.67;5.87;;;;;;;;;;5079153;28;20910;-64
2021/12/04 02:22:28;;;;;;;7.17;5.90;;;;;;;;;;5058039;28;20229;-63
2021/12/04 02:24:55;;;;;;;6.40;5.47;;;;;;;;;;5075048;28;20210;-63
2021/12/04 02:27:23;;;;;;;6.17;5.50;;;;;;;;;;5073157;28;20209;-63
2021/12/04 02:29:50;;;;;;;6.00;5.30;;;;;;;;;;5084100;28;20252;-63
2021/12/04 02:32:20;;;;;;;7.63;5.67;;;;;;;;;;5073480;28;20241;-63
2021/12/04 02:34:47;;;;;;;5.90;4.90;;;;;;;;;;5061190;28;20216;-64
2021/12/04 02:37:14;;;;;;;5.87;5.27;;;;;;;;;;5060226;28;20216;-63
2021/12/04 02:39:45;;;;;;;5.83;5.23;;;;;;;;;;5081968;28;20603;-63
2021/12/04 02:42:21;;;;;;;5.80;4.80;;;;;;;;;;5061449;28;20246;-63
2021/12/04 02:44:48;;;;;;;6.47;4.97;;;;;;;;;;5076596;28;20213;-63
2021/12/04 02:47:16;;;;;;;4.70;4.30;;;;;;;;;;5056737;28;20208;-63
2021/12/04 02:49:44;;;;;;;4.77;4.37;;;;;;;;;;5057665;28;20229;-63
2021/12/04 02:52:12;;;;;;;4.40;4.00;;;;;;;;;;5063833;28;20209;-63
2021/12/04 02:54:40;;;;;;;4.57;4.17;;;;;;;;;;5060446;28;20213;-62
2021/12/04 02:57:09;;;;;;;3.93;3.57;;;;;;;;;;5080583;28;20211;-63
2021/12/04 02:59:38;;;;;;;4.13;3.83;;;;;;;;;;5057298;28;20221;-64
2021/12/04 03:02:06;;;;;;;3.73;3.43;;;;;;;;;;5065785;28;20227;-64
2021/12/04 03:04:34;;;;;;;3.70;3.40;;;;;;;;;;5055621;28;20220;-62
2021/12/04 03:07:01;;;;;;;3.93;3.60;;;;;;;;;;5058430;28;20212;-63
2021/12/04 03:09:28;;;;;;;3.50;3.20;;;;;;;;;;5062349;28;20239;-63
2021/12/04 03:11:56;;;;;;;3.47;3.20;;;;;;;;;;5074962;28;20203;-63
2021/12/04 03:14:23;;;;;;;3.17;2.97;;;;;;;;;;5063555;28;20207;-63
2021/12/04 03:16:51;;;;;;;3.27;3.07;;;;;;;;;;5077548;28;20212;-62
2021/12/04 03:19:18;;;;;;;3.20;2.90;;;;;;;;;;5060115;28;20231;-63
2021/12/04 03:21:46;;;;;;;2.80;2.67;;;;;;;;;;5056291;28;20231;-63
2021/12/04 03:24:16;;;;;;;3.10;2.90;;;;;;;;;;5068223;28;20205;-63
2021/12/04 03:26:45;;;;;;;2.70;2.50;;;;;;;;;;5066903;28;20542;-63
2021/12/04 03:29:16;;;;;;;2.80;2.60;;;;;;;;;;5064820;28;20540;-63
2021/12/04 03:42:33;;;;;;;2.63;2.43;;;;;;;;;;5059158;28;20229;-63
2021/12/04 03:45:00;;;;;;;2.17;2.07;;;;;;;;;;5080535;28;20210;-63
2021/12/04 03:47:29;;;;;;;2.40;2.30;;;;;;;;;;5075441;28;20212;-63
2021/12/04 03:49:57;;;;;;;2.67;2.47;;;;;;;;;;5074702;28;20217;-62
2021/12/04 03:52:24;;;;;;;2.20;2.10;;;;;;;;;;5068014;28;20220;-63
2021/12/04 03:54:52;;;;;;;1.90;1.80;;;;;;;;;;5078646;28;20259;-63
2021/12/04 03:57:19;;;;;;;1.83;1.73;;;;;;;;;;5071243;28;20303;-63
2021/12/04 03:59:48;;;;;;;1.90;1.80;;;;;;;;;;5057339;28;20225;-64
2021/12/04 04:02:16;;;;;;;1.90;1.80;;;;;;;;;;5059825;28;20359;-63
2021/12/04 04:04:44;;;;;;;1.90;1.80;;;;;;;;;;5082464;28;20254;-64
2021/12/04 04:07:12;;;;;;;1.80;1.70;;;;;;;;;;5067022;28;20197;-63
2021/12/04 04:09:39;;;;;;;1.83;1.73;;;;;;;;;;5064903;28;20338;-64
2021/12/04 04:12:07;;;;;;;2.00;1.90;;;;;;;;;;5072448;28;20212;-63
2021/12/04 04:14:34;;;;;;;1.67;1.57;;;;;;;;;;5059648;28;20221;-62
2021/12/04 04:17:02;;;;;;;1.70;1.60;;;;;;;;;;5071422;28;20205;-63
2021/12/04 04:19:29;;;;;;;1.53;1.50;;;;;;;;;;5061313;28;20297;-62
2021/12/04 04:21:58;;;;;;;1.40;1.40;;;;;;;;;;5080634;28;20233;-64
2021/12/04 04:24:27;;;;;;;1.73;1.63;;;;;;;;;;5063782;28;20289;-63
2021/12/04 04:26:54;;;;;;;1.63;1.60;;;;;;;;;;5078033;28;20209;-62
2021/12/04 04:29:22;;;;;;;1.97;1.87;;;;;;;;;;5074809;28;20205;-62
2021/12/04 04:31:49;;;;;;;1.70;1.60;;;;;;;;;;5073537;28;20216;-63
2021/12/04 04:34:25;;;;;;;1.63;1.63;;;;;;;;;;5057435;28;20213;-62
2021/12/04 05:01:24;;;;;;;2.00;1.90;;;;;;;;;;5053616;28;20256;-63
2021/12/04 05:14:41;;;;;;;1.67;1.60;;;;;;;;;;5065279;28;20723;-64
2021/12/04 05:17:29;;;;;;;1.90;1.80;;;;;;;;;;5084909;28;20632;-63
2021/12/04 05:19:56;;;;;;;1.70;1.60;;;;;;;;;;5062785;28;20241;-63
2021/12/04 05:22:24;;;;;;;1.80;1.70;;;;;;;;;;5048960;28;20228;-63
2021/12/04 05:24:51;;;;;;;1.90;1.80;;;;;;;;;;5073014;28;20814;-63
2021/12/04 05:27:19;;;;;;;1.70;1.70;;;;;;;;;;5069836;28;20231;-62
2021/12/04 05:29:46;;;;;;;1.83;1.73;;;;;;;;;;5082036;28;20229;-63
2021/12/04 05:32:16;;;;;;;1.70;1.60;;;;;;;;;;5079081;28;20396;-62
2021/12/04 05:34:43;;;;;;;1.40;1.40;;;;;;;;;;5076623;28;20227;-64
2021/12/04 05:37:11;;;;;;;1.37;1.37;;;;;;;;;;5066377;28;20212;-62
2021/12/04 05:39:38;;;;;;;1.37;1.37;;;;;;;;;;5062891;28;20229;-63
2021/12/04 05:42:06;;;;;;;1.30;1.30;;;;;;;;;;5078781;28;20235;-64
2021/12/04 05:44:34;;;;;;;1.23;1.23;;;;;;;;;;5057583;28;20210;-64
2021/12/04 05:47:14;;;;;;;1.30;1.30;;;;;;;;;;5062262;28;20209;-63
2021/12/04 05:57:45;;;;;;;1.20;1.20;;;;;;;;;;5048299;28;20696;-63
2021/12/04 06:00:15;;;;;;;1.20;1.20;;;;;;;;;;5056008;28;20233;-64
2021/12/04 06:02:42;;;;;;;1.20;1.20;;;;;;;;;;5056481;28;20812;-62
2021/12/04 06:05:10;;;;;;;1.20;1.20;;;;;;;;;;5061032;28;20289;-61
2021/12/04 06:07:38;;;;;;;1.30;1.30;;;;;;;;;;5074447;28;20205;-62
2021/12/04 06:10:06;;;;;;;1.07;1.07;;;;;;;;;;5077623;28;20698;-64
2021/12/04 06:12:33;;;;;;;1.20;1.20;;;;;;;;;;5079448;28;20624;-62
2021/12/04 06:15:01;;;;;;;1.17;1.17;;;;;;;;;;5079215;28;20617;-63
2021/12/04 06:17:29;;;;;;;1.10;1.10;;;;;;;;;;5080540;28;20624;-63
2021/12/04 06:22:43;;;;;;;1.30;1.30;;;;;;;;;;5066177;28;20427;-64
2021/12/04 06:25:28;;;;;;;1.20;1.20;;;;;;;;;;5089160;28;20208;-62
2021/12/04 06:27:56;;;;;;;1.17;1.17;;;;;;;;;;5075806;28;20209;-64
2021/12/04 06:30:24;;;;;;;1.13;1.13;;;;;;;;;;5071758;28;20225;-63
2021/12/04 06:32:53;;;;;;;5.27;4.03;;;;;;;;;;5065697;28;20690;-63
2021/12/04 06:35:22;;;;;;;12.50;8.13;;;;;;;;;;5061601;28;20262;-63
2021/12/04 06:37:50;;;;;;;7.00;6.10;;;;;;;;;;5063499;28;20201;-63
2021/12/04 06:40:19;;;;;;;3.50;3.20;;;;;;;;;;5062587;28;20233;-64
2021/12/04 06:42:46;;;;;;;2.30;2.20;;;;;;;;;;5085289;28;20222;-64
2021/12/04 06:45:14;;;;;;;6.27;5.77;;;;;;;;;;5079400;28;20205;-63
2021/12/04 06:48:31;;;;;;;2.93;2.73;;;;;;;;;;5057282;28;20293;-63
2021/12/04 06:50:41;;;;;;;2.50;2.40;;;;;;;;;;5057495;28;20225;-64
2021/12/04 06:53:56;;;;;;;1.80;1.70;;;;;;;;;;5061836;28;20201;-64
2021/12/04 06:56:02;;;;;;;2.13;2.03;;;;;;;;;;5054001;28;20226;-64
2021/12/04 06:58:30;;;;;;;2.60;2.40;;;;;;;;;;5058858;28;20208;-62
2021/12/04 07:00:57;;;;;;;1.80;1.70;;;;;;;;;;5058294;28;20776;-63
2021/12/04 07:03:25;;;;;;;1.80;1.70;;;;;;;;;;5060731;28;20226;-64
2021/12/04 07:05:53;;;;;;;2.90;2.70;;;;;;;;;;5069776;28;20221;-63
2021/12/04 07:08:21;;;;;;;1.80;1.70;;;;;;;;;;5055124;28;20201;-63
2021/12/04 07:10:49;;;;;;;1.90;1.80;;;;;;;;;;5072298;28;20857;-64
2021/12/04 07:13:17;;;;;;;1.70;1.60;;;;;;;;;;5062414;28;20206;-64
2021/12/04 07:15:46;;;;;;;2.63;2.53;;;;;;;;;;5080894;28;20213;-64
2021/12/04 07:18:14;;;;;;;2.20;2.10;;;;;;;;;;5054548;28;20743;-65
2021/12/04 07:20:42;;;;;;;2.20;2.10;;;;;;;;;;5063103;28;20234;-64
2021/12/04 07:23:09;;;;;;;2.60;2.50;;;;;;;;;;5061307;28;20221;-63
2021/12/04 07:25:36;;;;;;;1.83;1.73;;;;;;;;;;5055752;28;20205;-64
2021/12/04 07:28:04;;;;;;;3.00;2.80;;;;;;;;;;5053527;28;20216;-64
2021/12/04 07:30:31;;;;;;;3.77;3.30;;;;;;;;;;5060785;28;20723;-64
2021/12/04 07:32:59;;;;;;;1.73;1.63;;;;;;;;;;5080271;28;20214;-63
2021/12/04 07:35:26;;;;;;;1.57;1.50;;;;;;;;;;5077425;28;20214;-64
2021/12/04 07:37:54;;;;;;;2.90;2.70;;;;;;;;;;5059775;28;20301;-65
2021/12/04 07:40:21;;;;;;;1.67;1.57;;;;;;;;;;5067032;28;20718;-63
2021/12/04 07:42:48;;;;;;;4.17;3.80;;;;;;;;;;5071527;28;20241;-65
2021/12/04 07:45:16;;;;;;;1.40;1.40;;;;;;;;;;5046401;28;20213;-64
2021/12/04 07:47:44;;;;;;;5.93;5.13;;;;;;;;;;5058448;28;20675;-63
2021/12/04 07:50:12;;;;;;;2.90;2.70;;;;;;;;;;5063199;28;20229;-64
2021/12/04 07:52:39;;;;;;;3.73;3.43;;;;;;;;;;5075180;28;20228;-62
2021/12/04 07:55:07;;;;;;;1.60;1.50;;;;;;;;;;5055231;28;20204;-62
2021/12/04 07:57:35;;;;;;;1.60;1.60;;;;;;;;;;5073514;28;20202;-65
2021/12/04 08:00:07;;;;;;;1.93;1.83;;;;;;;;;;5051573;28;20234;-63
2021/12/04 08:02:34;;;;;;;1.20;1.20;;;;;;;;;;5053896;28;20258;-64
2021/12/04 08:05:02;;;;;;;1.07;1.07;;;;;;;;;;5056566;28;20209;-63
2021/12/04 08:07:29;;;;;;;1.30;1.20;;;;;;;;;;5068980;28;20209;-64
2021/12/04 08:09:56;;;;;;;1.00;1.00;;;;;;;;;;5055678;28;20225;-63
2021/12/04 08:12:24;;;;;;;1.00;1.00;;;;;;;;;;5070106;28;20213;-64
2021/12/04 08:14:53;;;;;;;1.00;1.00;;;;;;;;;;5052381;28;20220;-62
2021/12/04 08:17:25;;;;;;;1.07;1.00;;;;;;;;;;5062131;28;20213;-63
2021/12/04 08:19:52;;;;;;;0.80;0.80;;;;;;;;;;5074471;28;20245;-63
2021/12/04 08:22:19;;;;;;;0.90;0.90;;;;;;;;;;5062173;28;20214;-64
2021/12/04 08:24:48;;;;;;;0.90;0.90;;;;;;;;;;5045968;28;20213;-64
2021/12/04 08:27:16;;;;;;;0.97;0.97;;;;;;;;;;5054620;28;20220;-63
2021/12/04 08:29:44;;;;;;;0.90;0.90;;;;;;;;;;5050587;28;20229;-63
2021/12/04 08:32:12;;;;;;;1.00;1.00;;;;;;;;;;5051014;28;20244;-64
2021/12/04 08:34:39;;;;;;;1.50;1.20;;;;;;;;;;5057371;28;20219;-64
2021/12/04 08:37:07;;;;;;;1.10;1.10;;;;;;;;;;5098340;28;20198;-65
2021/12/04 08:39:34;;;;;;;1.17;1.17;;;;;;;;;;5064545;28;20252;-64
2021/12/04 08:42:02;;;;;;;1.60;1.50;;;;;;;;;;5069276;28;20615;-64
2021/12/04 08:44:30;;;;;;;1.40;1.40;;;;;;;;;;5054781;28;20226;-64
2021/12/04 08:46:57;;;;;;;1.70;1.60;;;;;;;;;;5054079;28;20210;-63
2021/12/04 08:49:26;;;;;;;1.40;1.40;;;;;;;;;;5049810;28;20204;-64
2021/12/04 08:51:53;;;;;;;0.87;0.80;;;;;;;;;;5058261;28;20214;-63
2021/12/04 08:54:21;;;;;;;1.63;1.57;;;;;;;;;;5048642;28;20227;-63
2021/12/04 08:56:48;;;;;;;1.33;1.33;;;;;;;;;;5045966;28;20209;-63
2021/12/04 08:59:15;;;;;;;0.70;0.70;;;;;;;;;;5056643;28;20217;-62
2021/12/04 09:01:44;;;;;;;1.03;1.00;;;;;;;;;;5065356;28;21477;-63
2021/12/04 09:04:19;;;;;;;2.83;2.43;;;;;;;;;;5055823;28;20320;-62
2021/12/04 09:06:47;;;;;;;7.53;6.23;;;;;;;;;;5074847;28;20209;-63
2021/12/04 09:09:18;;;;;;;2.80;2.07;;;;;;;;;;5057650;28;20205;-63
2021/12/04 09:11:47;;;;;;;2.53;1.20;;;;;;;;;;5064198;28;20197;-64
2021/12/04 09:14:16;;;;;;;0.90;0.90;;;;;;;;;;5060625;28;21154;-63
2021/12/04 09:16:43;;;;;;;1.17;1.13;;;;;;;;;;5049414;28;20202;-62
2021/12/04 09:19:11;;;;;;;1.97;1.87;;;;;;;;;;5059471;28;20225;-63
2021/12/04 09:21:40;;;;;;;2.10;1.90;;;;;;;;;;5058366;28;20214;-63
2021/12/04 09:24:12;;;;;;;1.23;1.23;;;;;;;;;;5057641;28;20586;-62
2021/12/04 10:18:53;;;;;;;1.53;1.53;;;;;;;;;;5050537;28;20294;-63
2021/12/04 10:24:32;;;;;;;2.50;2.30;;;;;;;;;;5049476;28;20225;-64
2021/12/04 10:32:39;;;;;;;4.97;4.57;;;;;;;;;;5052244;28;20205;-62
2021/12/04 10:35:07;;;;;;;2.87;2.67;;;;;;;;;;5051151;28;20224;-63
2021/12/04 10:37:37;;;;;;;2.08;1.98;;;;;;;;;;5061227;28;21049;-63
2021/12/04 10:40:08;;;;;;;1.70;1.60;;;;;;;;;;5061938;28;20783;-65
2021/12/04 10:43:05;;;;;;;1.47;1.33;;;;;;;;;;5052618;28;20267;-64
2021/12/04 10:45:35;;;;;;;1.20;1.20;;;;;;;;;;5053021;28;20206;-64
2021/12/04 10:48:05;;;;;;;1.20;1.10;;;;;;;;;;5065677;28;20209;-64
2021/12/04 10:50:44;;;;;;;0.90;0.90;;;;;;;;;;5073478;28;20235;-64
2021/12/04 10:53:17;;;;;;;0.90;0.90;;;;;;;;;;5057729;28;20225;-62
2021/12/04 10:55:56;;;;;;;0.80;0.80;;;;;;;;;;5066282;28;20205;-62
2021/12/04 11:04:08;;;;;;;0.90;0.90;;;;;;;;;;5050182;28;20225;-62
2021/12/04 11:23:22;;;;;;;1.00;1.00;;;;;;;;;;5054799;28;20206;-63
2021/12/04 11:45:22;;;;;;;1.40;1.30;;;;;;;;;;5033221;28;20299;-62
2021/12/04 11:47:55;;;;;;;1.20;1.20;;;;;;;;;;5038448;28;20214;-63
2021/12/04 11:50:24;;;;;;;1.70;1.60;;;;;;;;;;5053367;28;20234;-62
2021/12/04 11:52:56;;;;;;;1.30;1.30;;;;;;;;;;5057295;28;20209;-63
2021/12/04 11:55:25;;;;;;;1.00;1.00;;;;;;;;;;5065118;28;20205;-63
2021/12/04 11:57:53;;;;;;;0.97;0.97;;;;;;;;;;5077433;28;20217;-63
2021/12/04 12:00:25;;;;;;;1.50;1.30;;;;;;;;;;5077382;28;20233;-63
2021/12/04 12:03:04;;;;;;;1.40;1.30;;;;;;;;;;5062341;28;20268;-64
2021/12/04 12:05:32;;;;;;;1.30;1.30;;;;;;;;;;5075823;28;20370;-62
2021/12/04 12:07:59;;;;;;;1.10;1.10;;;;;;;;;;5059766;28;20229;-63
2021/12/04 12:10:28;;;;;;;0.87;0.87;;;;;;;;;;5060624;28;20240;-63
2021/12/04 12:13:04;;;;;;;1.43;1.33;;;;;;;;;;5060888;28;20575;-64
2021/12/04 12:15:35;;;;;;;2.50;1.70;;;;;;;;;;5080525;28;20652;-63
2021/12/04 12:18:16;;;;;;;2.13;1.97;;;;;;;;;;5069447;28;20214;-63
2021/12/04 12:20:50;;;;;;;1.43;1.43;;;;;;;;;;5074432;28;20240;-63
2021/12/04 12:23:21;;;;;;;1.90;1.23;;;;;;;;;;5064541;28;20202;-63
2021/12/04 12:26:07;;;;;;;1.63;1.53;;;;;;;;;;5071665;28;20395;-63
2021/12/04 12:36:03;;;;;;;1.67;1.57;;;;;;;;;;5059159;28;20213;-63
2021/12/04 12:37:20;;;;;;;1.60;1.50;;;;;;;;;;5058031;28;20438;-63
2021/12/04 12:39:51;;;;;;;2.03;1.20;;;;;;;;;;5070705;28;20718;-63
2021/12/04 12:42:24;;;;;;;2.07;1.20;;;;;;;;;;5060080;28;20209;-64
2021/12/04 12:44:51;;;;;;;1.23;1.10;;;;;;;;;;5061687;28;20240;-64
2021/12/04 12:47:21;;;;;;;1.10;1.10;;;;;;;;;;5060300;28;20323;-64
2021/12/04 12:49:49;;;;;;;1.13;1.03;;;;;;;;;;5059060;28;20312;-63
2021/12/04 12:52:22;;;;;;;1.20;1.20;;;;;;;;;;5062144;28;20201;-64
2021/12/04 12:55:00;;;;;;;1.20;1.20;;;;;;;;;;5060942;28;20663;-63
2021/12/04 12:57:45;;;;;;;1.33;1.23;;;;;;;;;;5065505;28;20202;-64
2021/12/04 13:11:42;;;;;;;2.70;2.50;;;;;;;;;;5065472;28;20205;-63
2021/12/04 13:14:10;;;;;;;1.20;1.20;;;;;;;;;;5063715;28;20201;-63
2021/12/04 13:16:38;;;;;;;1.50;1.40;;;;;;;;;;5060366;28;20731;-64
2021/12/04 13:19:09;;;;;;;2.37;2.17;;;;;;;;;;5077139;28;20206;-63
2021/12/04 13:21:38;;;;;;;2.30;1.97;;;;;;;;;;5076111;28;20210;-63
2021/12/04 13:24:10;;;;;;;1.77;1.37;;;;;;;;;;5075804;28;20221;-64
2021/12/04 13:26:39;;;;;;;10.87;7.23;;;;;;;;;;5070875;28;20218;-62
2021/12/04 13:29:08;;;;;;;2.50;2.30;;;;;;;;;;5054275;28;20202;-62
2021/12/04 13:31:39;;;;;;;4.80;2.83;;;;;;;;;;5076466;28;20202;-63
2021/12/04 13:34:08;;;;;;;2.20;2.10;;;;;;;;;;5072376;28;20210;-63
2021/12/04 13:36:39;;;;;;;6.30;4.70;;;;;;;;;;5062313;28;21981;-65
2021/12/04 13:39:06;;;;;;;1.70;1.60;;;;;;;;;;5077551;28;20932;-63
2021/12/04 13:41:34;;;;;;;6.83;5.00;;;;;;;;;;5061520;28;20316;-63
2021/12/04 13:44:04;;;;;;;32.27;19.27;;;;;;;;;;5079446;28;20350;-64
2021/12/04 13:46:52;;;;;;;1.60;1.50;;;;;;;;;;5065203;28;20201;-62
2021/12/04 13:49:40;;;;;;;1.60;1.50;;;;;;;;;;5065427;28;20198;-63
2021/12/04 13:52:12;;;;;;;1.47;1.40;;;;;;;;;;5064784;28;21992;-65
2021/12/04 13:54:41;;;;;;;1.90;1.80;;;;;;;;;;5086707;28;20201;-64
2021/12/04 13:57:10;;;;;;;1.63;1.50;;;;;;;;;;5068384;28;20784;-62
2021/12/04 13:59:38;;;;;;;2.20;2.00;;;;;;;;;;5079272;28;20229;-64
2021/12/04 14:02:05;;;;;;;1.40;1.30;;;;;;;;;;5069715;28;20212;-62
2021/12/04 14:04:33;;;;;;;1.10;1.10;;;;;;;;;;5063331;28;20287;-63
2021/12/04 14:07:02;;;;;;;1.43;1.33;;;;;;;;;;5076211;28;20202;-64
2021/12/04 14:09:39;;;;;;;1.20;1.20;;;;;;;;;;5062400;28;20746;-64
2021/12/04 14:12:07;;;;;;;1.73;1.63;;;;;;;;;;5078047;28;20201;-63
2021/12/04 14:14:35;;;;;;;1.93;1.20;;;;;;;;;;5052895;28;20214;-64
2021/12/04 14:17:08;;;;;;;1.87;1.57;;;;;;;;;;5080972;28;20671;-63
2021/12/04 14:19:35;;;;;;;1.70;1.60;;;;;;;;;;5062886;28;20241;-63
2021/12/04 14:22:03;;;;;;;2.10;2.00;;;;;;;;;;5070278;28;20207;-65
2021/12/04 14:24:42;;;;;;;1.60;1.50;;;;;;;;;;5066394;28;20660;-62
2021/12/04 14:27:21;;;;;;;1.60;1.50;;;;;;;;;;5060039;28;20198;-63
2021/12/04 14:29:55;;;;;;;1.90;1.80;;;;;;;;;;5050610;28;20457;-63
2021/12/04 14:32:27;;;;;;;1.83;1.73;;;;;;;;;;5054491;28;20193;-64
2021/12/04 14:35:06;;;;;;;1.57;1.47;;;;;;;;;;5065321;28;20209;-64
2021/12/04 14:37:35;;;;;;;1.50;1.40;;;;;;;;;;5062475;28;20213;-64
2021/12/04 14:40:04;;;;;;;1.90;1.80;;;;;;;;;;5067787;28;20946;-64
2021/12/04 14:42:33;;;;;;;1.97;1.87;;;;;;;;;;5060878;28;20210;-64
2021/12/04 14:45:09;;;;;;;1.87;1.77;;;;;;;;;;5064659;28;20944;-65
2021/12/04 14:47:41;;;;;;;1.80;1.70;;;;;;;;;;5051881;28;20290;-64
2021/12/04 14:50:10;;;;;;;1.50;1.40;;;;;;;;;;5052001;28;20731;-62
2021/12/04 14:52:38;;;;;;;1.60;1.50;;;;;;;;;;5042804;28;20376;-64
2021/12/04 14:55:22;;;;;;;1.53;1.53;;;;;;;;;;5053049;28;20695;-65
2021/12/04 14:57:50;;;;;;;1.70;1.60;;;;;;;;;;5058511;28;20197;-65
2021/12/04 15:00:22;;;;;;;2.00;1.90;;;;;;;;;;5056026;28;20229;-65
2021/12/04 15:02:57;;;;;;;3.37;1.80;;;;;;;;;;5059560;28;20197;-64
2021/12/04 15:05:26;;;;;;;1.63;1.53;;;;;;;;;;5071408;28;20314;-64
2021/12/04 15:08:19;;;;;;;1.67;1.57;;;;;;;;;;5069728;28;20206;-64
2021/12/04 15:10:55;;;;;;;1.20;1.20;;;;;;;;;;5055493;28;20222;-65
2021/12/04 15:13:24;;;;;;;1.30;1.30;;;;;;;;;;5048177;28;20212;-64
2021/12/04 15:15:53;;;;;;;1.20;1.20;;;;;;;;;;5077146;28;20353;-64
2021/12/04 15:18:24;;;;;;;1.10;1.10;;;;;;;;;;5065659;28;20205;-66
2021/12/04 15:21:04;;;;;;;1.10;1.10;;;;;;;;;;5078889;28;20226;-65
2021/12/04 15:23:34;;;;;;;1.30;1.20;;;;;;;;;;5082552;28;20229;-65
2021/12/04 15:26:08;;;;;;;1.10;1.10;;;;;;;;;;5062239;28;20268;-64
2021/12/04 15:28:36;;;;;;;1.20;1.20;;;;;;;;;;5064360;28;20792;-64
2021/12/04 15:31:04;;;;;;;0.90;0.90;;;;;;;;;;5077119;28;20228;-64
2021/12/04 15:33:36;;;;;;;1.00;1.00;;;;;;;;;;5060697;28;20205;-64
2021/12/04 15:36:27;;;;;;;1.00;1.00;;;;;;;;;;5077939;28;20213;-64
2021/12/04 15:38:56;;;;;;;1.13;1.13;;;;;;;;;;5066158;28;20218;-64
2021/12/04 15:42:20;;;;;;;1.00;1.00;;;;;;;;;;5060684;28;20225;-64
2021/12/04 15:47:17;;;;;;;1.10;1.10;;;;;;;;;;5060215;28;20205;-63
2021/12/04 15:55:11;;;;;;;9.37;5.57;;;;;;;;;;5049226;28;20194;-61
2021/12/04 15:57:59;;;;;;;4.53;1.17;;;;;;;;;;5063564;28;20725;-63
2021/12/04 16:00:30;;;;;;;2.70;2.60;;;;;;;;;;5044977;28;20282;-63
2021/12/04 16:02:59;;;;;;;2.53;2.33;;;;;;;;;;5062270;28;20220;-63
2021/12/04 16:05:31;;;;;;;1.03;1.03;;;;;;;;;;5039093;28;20225;-64
2021/12/04 16:08:13;;;;;;;1.67;1.40;;;;;;;;;;5039014;28;20581;-63
2021/12/04 16:10:45;;;;;;;1.20;1.20;;;;;;;;;;5054380;28;20229;-65
2021/12/04 16:13:16;;;;;;;1.10;1.10;;;;;;;;;;5053815;28;20211;-63
2021/12/04 16:15:43;;;;;;;0.90;0.90;;;;;;;;;;5062066;28;20206;-64
2021/12/04 16:18:11;;;;;;;1.00;1.00;;;;;;;;;;5059015;28;20222;-64
2021/12/04 16:20:40;;;;;;;1.40;1.30;;;;;;;;;;5054674;28;20248;-64
2021/12/04 16:23:07;;;;;;;1.10;1.10;;;;;;;;;;5070000;28;20216;-63
2021/12/04 16:25:37;;;;;;;1.30;1.30;;;;;;;;;;5049108;28;20225;-62
2021/12/04 16:30:38;;;;;;;1.30;1.23;;;;;;;;;;5073857;28;20225;-64
2021/12/04 16:38:32;;;;;;;1.00;1.00;;;;;;;;;;5039947;28;20209;-62
2021/12/04 16:41:04;;;;;;;1.23;1.00;;;;;;;;;;5059238;28;20261;-62
2021/12/04 16:43:33;;;;;;;1.00;1.00;;;;;;;;;;5042292;28;20216;-64
2021/12/04 16:46:05;;;;;;;0.80;0.80;;;;;;;;;;5054369;28;20234;-62
2021/12/04 16:48:37;;;;;;;1.50;1.40;;;;;;;;;;5046915;28;20198;-64
2021/12/04 16:59:39;;;;;;;1.10;1.10;;;;;;;;;;5030882;28;20761;-63
2021/12/04 17:02:07;;;;;;;1.10;1.10;;;;;;;;;;5057636;28;20253;-63
2021/12/04 17:04:35;;;;;;;1.30;1.30;;;;;;;;;;5056779;28;20228;-64
2021/12/04 17:07:04;;;;;;;1.63;1.53;;;;;;;;;;5046995;28;20331;-63
2021/12/04 17:09:32;;;;;;;3.83;3.53;;;;;;;;;;5044847;28;20233;-62
2021/12/04 17:12:00;;;;;;;4.87;4.47;;;;;;;;;;5052757;28;20263;-64
2021/12/04 17:14:32;;;;;;;5.57;4.10;;;;;;;;;;5052295;28;20259;-63
2021/12/04 17:17:00;;;;;;;1.10;1.10;;;;;;;;;;5073938;28;20193;-64
2021/12/04 17:19:28;;;;;;;5.07;4.67;;;;;;;;;;5044291;28;20213;-63
2021/12/04 17:21:56;;;;;;;5.10;4.80;;;;;;;;;;5054910;28;20209;-64
2021/12/04 17:24:29;;;;;;;3.57;3.37;;;;;;;;;;5051694;28;20205;-62
2021/12/04 17:26:59;;;;;;;4.60;4.30;;;;;;;;;;5056071;28;20279;-62
2021/12/04 17:29:27;;;;;;;4.73;4.43;;;;;;;;;;5060747;28;20232;-62
2021/12/04 17:31:56;;;;;;;7.47;6.97;;;;;;;;;;5053247;28;20205;-62
2021/12/04 17:34:23;;;;;;;1.33;1.33;;;;;;;;;;5057550;28;20201;-62
2021/12/04 17:36:51;;;;;;;1.13;1.10;;;;;;;;;;5054001;28;20893;-62
2021/12/04 17:39:18;;;;;;;1.10;1.10;;;;;;;;;;5059331;28;20197;-63
2021/12/04 17:41:47;;;;;;;1.30;1.20;;;;;;;;;;5054989;28;20205;-62
2021/12/04 17:44:18;;;;;;;1.37;1.23;;;;;;;;;;5054062;28;20671;-61
2021/12/04 17:46:52;;;;;;;1.20;1.20;;;;;;;;;;5056044;28;20221;-62
2021/12/04 17:49:23;;;;;;;1.07;1.07;;;;;;;;;;5041784;28;20315;-64
2021/12/04 17:51:51;;;;;;;1.27;1.17;;;;;;;;;;5052585;28;20289;-63
2021/12/04 17:54:19;;;;;;;1.10;1.10;;;;;;;;;;5054704;28;20330;-61
2021/12/04 17:56:51;;;;;;;1.00;1.00;;;;;;;;;;5054020;28;21932;-62
2021/12/04 17:59:20;;;;;;;1.70;1.60;;;;;;;;;;5054197;28;20692;-64
2021/12/04 18:01:50;;;;;;;2.83;1.50;;;;;;;;;;5063327;28;20576;-63
2021/12/04 18:04:20;;;;;;;10.07;6.87;;;;;;;;;;5061188;28;20198;-62
2021/12/04 18:06:48;;;;;;;10.63;6.83;;;;;;;;;;5074216;28;20217;-63
2021/12/04 18:09:16;;;;;;;6.37;4.67;;;;;;;;;;5055892;28;20201;-64
2021/12/04 18:11:50;;;;;;;9.90;6.27;;;;;;;;;;5052653;28;20557;-63
2021/12/04 18:14:20;;;;;;;12.40;8.00;;;;;;;;;;5054037;28;20206;-63
2021/12/04 18:16:50;;;;;;;3.87;2.93;;;;;;;;;;5054712;28;20763;-63
2021/12/04 18:19:20;;;;;;;10.60;7.43;;;;;;;;;;5046845;28;24860;-62
2021/12/04 18:21:48;;;;;;;14.87;10.20;;;;;;;;;;5056017;28;20205;-63
2021/12/04 18:24:16;;;;;;;7.93;5.23;;;;;;;;;;5054880;28;20301;-62
2021/12/04 18:26:43;;;;;;;18.97;12.93;;;;;;;;;;5046479;28;20229;-63
2021/12/04 18:29:11;;;;;;;4.27;3.57;;;;;;;;;;5058694;28;20671;-62
2021/12/04 18:31:41;;;;;;;2.60;2.40;;;;;;;;;;5067180;28;20251;-62
2021/12/04 18:34:09;;;;;;;2.23;1.90;;;;;;;;;;5045561;28;20210;-64